Kitzbuhel, Austria
Current Conditions -  °F | °C
As of 5:20 AM on Wednesday 28 Jan 2015 (Local Time) from LOWS Reporting Station
Broken Clouds Broken Clouds  
Wind Chill: 24°   Ceiling: 3500
Heat Index: 30°   Visibility: 6mi
Dew Point: 28°   Wind: 6mph
Humidity: 93%   Direction: 170°S
Pressure: 30.12"   Gusts: NA
Location:  47.45°N, 12.39°E
Report Text: LOWS 280420Z 17005KT 9999 FEW014 SCT025 BKN035 M01/M02 Q1020 R15/29//95 NOSIG
Loading
Personal Weather Stations






























Interactive Weather Map New forecast layout! Learn more

10-Day Weather Forecast

Advertisements
Track Severe Weather on mobile